Time;durP1;ratioP1;P1;durP2;ratioP2;P2;SDS_P1;SDS_P2;PMS_P1;PMS_P2;Temp;Humidity;BMP_temperature;BMP_pressure;BME280_temperature;BME280_humidity;BME280_pressure;Samples;Min_cycle;Max_cycle;Signal;HPM_P1;HPM_P2
2022/10/16 00:00:22;;;;;;;2.40;2.20;;;15.00;99.90;;;;;;5022233;28;20447;-52
2022/10/16 00:02:48;;;;;;;3.20;1.80;;;15.00;99.90;;;;;;5012360;28;20480;-52
2022/10/16 00:05:15;;;;;;;9.70;2.23;;;15.00;99.90;;;;;;5009688;28;20521;-52
2022/10/16 00:07:42;;;;;;;2.07;1.97;;;15.00;99.90;;;;;;5014056;28;20464;-51
2022/10/16 00:10:09;;;;;;;1.87;1.77;;;15.10;99.90;;;;;;5013680;28;20465;-52
2022/10/16 00:12:35;;;;;;;3.17;2.20;;;15.10;99.90;;;;;;5013340;28;20564;-52
2022/10/16 00:15:02;;;;;;;1.70;1.60;;;15.10;99.90;;;;;;5009632;22;20530;-51
2022/10/16 00:17:31;;;;;;;2.20;2.00;;;15.20;99.90;;;;;;4993800;28;20465;-51
2022/10/16 00:19:57;;;;;;;2.30;2.10;;;15.20;99.90;;;;;;4992907;28;20538;-51
2022/10/16 00:22:24;;;;;;;1.97;1.77;;;15.20;99.90;;;;;;4995398;28;20465;-51
2022/10/16 00:24:51;;;;;;;4.40;1.90;;;15.20;99.90;;;;;;4996833;28;20878;-59
2022/10/16 00:27:18;;;;;;;1.97;1.77;;;15.20;99.90;;;;;;4990880;28;20460;-52
2022/10/16 00:29:45;;;;;;;1.60;1.50;;;15.30;99.90;;;;;;4993047;28;20468;-50
2022/10/16 00:32:11;;;;;;;2.13;1.93;;;15.30;99.90;;;;;;4993262;28;20558;-52
2022/10/16 00:34:39;;;;;;;1.90;1.80;;;15.30;99.90;;;;;;4991917;28;20484;-51
2022/10/16 00:37:06;;;;;;;5.03;2.13;;;15.30;99.90;;;;;;4993373;28;20511;-51
2022/10/16 00:39:32;;;;;;;1.63;1.53;;;15.30;99.90;;;;;;4990096;28;20515;-51
2022/10/16 00:41:59;;;;;;;3.33;1.77;;;15.30;99.90;;;;;;4988955;28;20824;-52
2022/10/16 00:44:49;;;;;;;1.70;1.60;;;15.30;99.90;;;;;;4991071;28;20484;-51
2022/10/16 00:47:20;;;;;;;1.77;1.67;;;15.30;99.90;;;;;;4985328;28;20973;-51
2022/10/16 00:49:51;;;;;;;1.70;1.60;;;15.30;99.90;;;;;;4989127;28;20491;-51
2022/10/16 00:52:18;;;;;;;1.50;1.47;;;15.30;99.90;;;;;;4987545;28;22335;-51
2022/10/16 00:54:47;;;;;;;1.63;1.43;;;15.30;99.90;;;;;;4993043;28;20480;-50
2022/10/16 00:57:14;;;;;;;2.33;1.90;;;15.30;99.90;;;;;;4993035;28;20833;-51
2022/10/16 00:59:42;;;;;;;2.20;1.20;;;15.20;99.90;;;;;;4990595;28;20843;-51
2022/10/16 01:02:13;;;;;;;1.90;1.80;;;15.30;99.90;;;;;;4988956;28;20550;-51
2022/10/16 01:04:42;;;;;;;3.90;2.03;;;15.30;99.90;;;;;;4988644;28;20558;-51
2022/10/16 01:07:16;;;;;;;3.47;1.77;;;15.30;99.90;;;;;;4994978;28;20460;-51
2022/10/16 01:09:52;;;;;;;1.87;1.77;;;15.30;99.90;;;;;;4991158;28;20476;-51
2022/10/16 01:12:26;;;;;;;1.23;1.23;;;15.30;99.90;;;;;;4989043;28;21013;-51
2022/10/16 01:14:57;;;;;;;1.70;1.60;;;15.30;99.90;;;;;;4991110;28;20492;-51
2022/10/16 01:17:34;;;;;;;2.27;1.53;;;15.30;99.90;;;;;;4993007;28;20815;-51
2022/10/16 01:20:12;;;;;;;2.77;1.77;;;15.30;99.90;;;;;;4990182;28;20483;-51
2022/10/16 01:22:51;;;;;;;1.63;1.40;;;15.30;99.90;;;;;;4989967;28;20937;-51
2022/10/16 01:25:26;;;;;;;2.20;1.23;;;15.30;99.90;;;;;;4989441;28;20515;-50
2022/10/16 01:27:54;;;;;;;1.57;1.47;;;15.40;99.90;;;;;;4989646;28;20874;-51
2022/10/16 01:30:25;;;;;;;1.50;1.40;;;15.30;99.90;;;;;;4988525;28;20472;-51
2022/10/16 01:32:56;;;;;;;1.87;1.40;;;15.40;99.90;;;;;;4988959;28;20547;-52
2022/10/16 01:35:28;;;;;;;1.43;1.33;;;15.40;99.90;;;;;;4985326;28;20488;-51
2022/10/16 01:37:59;;;;;;;1.40;1.30;;;15.40;99.90;;;;;;4989680;28;20464;-51
2022/10/16 01:40:28;;;;;;;2.07;1.60;;;15.40;99.90;;;;;;4984111;28;20461;-52
2022/10/16 01:42:59;;;;;;;2.57;1.53;;;15.40;99.90;;;;;;4985922;28;20525;-51
2022/10/16 01:45:29;;;;;;;1.60;1.50;;;15.40;99.90;;;;;;4990288;28;20473;-51
2022/10/16 01:47:56;;;;;;;1.43;1.33;;;15.40;99.90;;;;;;4989822;28;20519;-49
2022/10/16 01:50:24;;;;;;;1.60;1.50;;;15.40;99.90;;;;;;4987054;28;20472;-51
2022/10/16 01:52:54;;;;;;;1.70;1.60;;;15.40;99.90;;;;;;4987513;28;20983;-50
2022/10/16 01:55:26;;;;;;;2.00;1.90;;;15.40;99.90;;;;;;4988403;28;20958;-51
2022/10/16 01:57:57;;;;;;;1.50;1.40;;;15.40;99.90;;;;;;4990022;28;20457;-51
2022/10/16 02:00:25;;;;;;;1.43;1.30;;;15.40;99.90;;;;;;4988995;28;20489;-51
2022/10/16 02:02:55;;;;;;;1.53;1.43;;;15.40;99.90;;;;;;4983150;28;20468;-51
2022/10/16 02:05:27;;;;;;;1.60;1.50;;;15.40;99.90;;;;;;4988894;28;20469;-50
2022/10/16 02:07:53;;;;;;;1.80;1.70;;;15.40;99.90;;;;;;4991975;28;20840;-54
2022/10/16 02:10:21;;;;;;;2.07;1.43;;;15.40;99.90;;;;;;4988672;28;20461;-50
2022/10/16 02:12:54;;;;;;;1.63;1.53;;;15.40;99.90;;;;;;4988578;28;20484;-51
2022/10/16 02:15:22;;;;;;;1.40;1.30;;;15.40;99.90;;;;;;4982102;28;20473;-50
2022/10/16 02:17:49;;;;;;;13.63;1.60;;;15.40;99.90;;;;;;4987704;28;21093;-50
2022/10/16 02:20:16;;;;;;;2.30;1.70;;;15.30;99.90;;;;;;4990852;28;20518;-50
2022/10/16 02:22:47;;;;;;;8.10;1.53;;;15.40;99.90;;;;;;4989215;28;20511;-50
2022/10/16 02:25:20;;;;;;;1.73;1.63;;;15.30;99.90;;;;;;4988739;28;20515;-50
2022/10/16 02:27:53;;;;;;;1.60;1.50;;;15.30;99.90;;;;;;4989044;28;20461;-54
2022/10/16 02:30:25;;;;;;;2.50;1.43;;;15.30;99.90;;;;;;4987852;28;20806;-51
2022/10/16 02:32:53;;;;;;;6.23;1.33;;;15.30;99.90;;;;;;4985392;28;20481;-50
2022/10/16 02:35:21;;;;;;;6.40;1.40;;;15.20;99.90;;;;;;4989683;28;20887;-52
2022/10/16 02:37:49;;;;;;;1.20;1.10;;;15.20;99.90;;;;;;4988725;28;20456;-50
2022/10/16 02:40:17;;;;;;;1.67;1.57;;;15.20;99.90;;;;;;4988589;28;20523;-51
2022/10/16 02:42:44;;;;;;;1.43;1.33;;;15.20;99.90;;;;;;4989005;28;20461;-50
2022/10/16 02:45:12;;;;;;;1.50;1.40;;;15.20;99.90;;;;;;4988422;28;20903;-51
2022/10/16 02:47:40;;;;;;;1.83;1.73;;;15.20;99.90;;;;;;4989131;28;20460;-51
2022/10/16 02:50:07;;;;;;;2.57;1.30;;;15.10;99.90;;;;;;4987937;28;20465;-50
2022/10/16 02:52:34;;;;;;;1.20;1.20;;;15.10;99.90;;;;;;4990884;28;20488;-50
2022/10/16 02:55:00;;;;;;;1.50;1.40;;;15.00;99.90;;;;;;4987689;28;20534;-50
2022/10/16 02:57:27;;;;;;;1.20;1.20;;;15.00;99.90;;;;;;4992026;28;20507;-51
2022/10/16 02:59:54;;;;;;;1.50;1.40;;;15.00;99.90;;;;;;4990779;28;20536;-51
2022/10/16 03:02:20;;;;;;;1.30;1.20;;;15.00;99.90;;;;;;4983342;28;20519;-51
2022/10/16 03:04:48;;;;;;;1.60;1.50;;;14.90;99.90;;;;;;4985184;28;20485;-51
2022/10/16 03:07:15;;;;;;;1.53;1.43;;;14.90;99.90;;;;;;4985845;28;20466;-51
2022/10/16 03:09:41;;;;;;;2.90;1.83;;;14.90;99.90;;;;;;4989112;28;20515;-51
2022/10/16 03:12:08;;;;;;;2.23;1.40;;;14.80;99.90;;;;;;4986110;28;20511;-52
2022/10/16 03:14:36;;;;;;;1.87;1.70;;;14.80;99.90;;;;;;4988237;28;20495;-51
2022/10/16 03:17:02;;;;;;;1.80;1.60;;;14.80;99.90;;;;;;4987892;28;20950;-51
2022/10/16 03:19:29;;;;;;;1.30;1.30;;;14.80;99.90;;;;;;4988161;28;20469;-51
2022/10/16 03:21:57;;;;;;;2.73;1.40;;;14.70;99.90;;;;;;4987935;28;20456;-51
2022/10/16 03:24:23;;;;;;;2.40;1.70;;;14.60;99.90;;;;;;4988832;28;20480;-51
2022/10/16 03:26:50;;;;;;;3.83;1.83;;;14.60;99.90;;;;;;4986624;28;20464;-51
2022/10/16 03:29:17;;;;;;;2.53;1.93;;;14.50;99.90;;;;;;4989309;28;20873;-52
2022/10/16 03:31:43;;;;;;;4.40;1.27;;;14.50;99.90;;;;;;4986739;28;20469;-52
2022/10/16 03:34:10;;;;;;;1.37;1.30;;;14.40;99.90;;;;;;4985893;28;20883;-51
2022/10/16 03:36:36;;;;;;;1.60;1.43;;;14.30;99.90;;;;;;4988633;28;20461;-51
2022/10/16 03:39:04;;;;;;;1.63;1.37;;;14.30;99.90;;;;;;4988842;28;20525;-51
2022/10/16 03:41:31;;;;;;;2.87;1.67;;;14.20;99.90;;;;;;4985829;28;20520;-52
2022/10/16 03:43:57;;;;;;;2.10;1.30;;;14.20;99.90;;;;;;4983488;28;20488;-52
2022/10/16 03:46:24;;;;;;;3.00;1.77;;;14.10;99.90;;;;;;4987914;28;20469;-52
2022/10/16 03:48:51;;;;;;;1.60;1.50;;;14.10;99.90;;;;;;4986044;28;20492;-50
2022/10/16 03:51:17;;;;;;;2.50;1.67;;;14.00;99.90;;;;;;4986858;28;20490;-51
2022/10/16 03:53:44;;;;;;;1.73;1.63;;;14.00;99.90;;;;;;4985988;28;20558;-51
2022/10/16 03:56:12;;;;;;;1.47;1.37;;;13.90;99.90;;;;;;4989374;28;21032;-52
2022/10/16 03:58:38;;;;;;;2.30;1.40;;;13.90;99.90;;;;;;4984151;28;20523;-51
2022/10/16 04:01:05;;;;;;;1.63;1.53;;;13.90;99.90;;;;;;4985551;28;21222;-51
2022/10/16 04:03:31;;;;;;;1.80;1.70;;;13.80;99.90;;;;;;4986494;28;21055;-51
2022/10/16 04:05:58;;;;;;;2.47;1.43;;;13.80;99.90;;;;;;4989920;28;20469;-49
2022/10/16 04:08:25;;;;;;;1.50;1.40;;;13.80;99.90;;;;;;4986931;28;20476;-48
2022/10/16 04:10:52;;;;;;;3.80;1.63;;;13.80;99.90;;;;;;4986385;28;20468;-48
2022/10/16 04:13:20;;;;;;;1.63;1.57;;;13.80;99.90;;;;;;4983865;28;22288;-48
2022/10/16 04:15:46;;;;;;;1.60;1.50;;;13.70;99.90;;;;;;4986434;28;20927;-48
2022/10/16 04:18:13;;;;;;;1.60;1.50;;;13.70;99.90;;;;;;4987300;28;20460;-48
2022/10/16 04:20:40;;;;;;;3.27;1.40;;;13.70;99.90;;;;;;4986463;28;20461;-48
2022/10/16 04:23:06;;;;;;;1.83;1.73;;;13.60;99.90;;;;;;4985031;28;20954;-48
2022/10/16 04:25:33;;;;;;;3.13;1.37;;;13.60;99.90;;;;;;4987187;28;20833;-48
2022/10/16 04:27:59;;;;;;;2.17;2.07;;;13.60;99.90;;;;;;4989524;28;20515;-49
2022/10/16 04:30:27;;;;;;;2.33;1.53;;;13.60;99.90;;;;;;4983076;28;20550;-48
2022/10/16 04:32:54;;;;;;;2.00;1.90;;;13.60;99.90;;;;;;4987181;28;20543;-48
2022/10/16 04:35:22;;;;;;;2.40;2.20;;;13.60;99.90;;;;;;4984889;28;20460;-48
2022/10/16 04:37:48;;;;;;;1.73;1.63;;;13.50;99.90;;;;;;4987317;28;20468;-51
2022/10/16 04:40:15;;;;;;;2.70;1.63;;;13.50;99.90;;;;;;4991016;28;21026;-51
2022/10/16 04:42:42;;;;;;;5.20;1.87;;;13.50;99.90;;;;;;4991265;28;21889;-51
2022/10/16 04:45:09;;;;;;;11.87;1.37;;;13.50;99.90;;;;;;4989972;28;20888;-51
2022/10/16 04:47:37;;;;;;;6.10;1.90;;;13.50;99.90;;;;;;4988976;28;20962;-52
2022/10/16 04:50:04;;;;;;;1.77;1.67;;;13.50;99.90;;;;;;4990571;28;20456;-51
2022/10/16 04:52:32;;;;;;;2.77;1.53;;;13.50;99.90;;;;;;4991385;28;20484;-51
2022/10/16 04:55:01;;;;;;;1.47;1.27;;;13.50;99.90;;;;;;4991202;28;20480;-51
2022/10/16 04:57:28;;;;;;;1.70;1.50;;;13.40;99.90;;;;;;4989513;28;20467;-50
2022/10/16 04:59:54;;;;;;;1.90;1.80;;;13.40;99.90;;;;;;4989021;28;20519;-55
2022/10/16 05:02:21;;;;;;;1.97;1.47;;;13.40;99.30;;;;;;4986551;28;20481;-56
2022/10/16 05:04:49;;;;;;;2.87;1.60;;;13.30;99.90;;;;;;4991193;28;20488;-55
2022/10/16 05:07:16;;;;;;;1.77;1.40;;;13.30;97.90;;;;;;4987577;28;20520;-54
2022/10/16 05:09:42;;;;;;;8.27;1.70;;;13.30;95.70;;;;;;4990921;28;20947;-55
2022/10/16 05:12:09;;;;;;;1.50;1.40;;;13.20;94.30;;;;;;4990320;28;20492;-56
2022/10/16 05:14:36;;;;;;;1.73;1.37;;;13.20;93.90;;;;;;4988414;28;21019;-56
2022/10/16 05:17:02;;;;;;;1.30;1.20;;;13.20;92.80;;;;;;4990115;28;20457;-56
2022/10/16 05:19:29;;;;;;;1.20;1.07;;;13.20;91.80;;;;;;4991192;28;20469;-56
2022/10/16 05:21:57;;;;;;;1.33;1.23;;;13.20;88.80;;;;;;4986207;28;20848;-55
2022/10/16 05:24:24;;;;;;;2.80;1.40;;;13.20;86.70;;;;;;4990013;28;20492;-55
2022/10/16 05:26:51;;;;;;;1.43;1.33;;;13.10;84.20;;;;;;4992499;28;20464;-55
2022/10/16 05:29:17;;;;;;;1.00;1.00;;;13.10;83.00;;;;;;4991099;28;20461;-60
2022/10/16 05:31:44;;;;;;;2.20;1.50;;;13.20;80.30;;;;;;4988493;28;20997;-51
2022/10/16 05:34:11;;;;;;;1.30;1.20;;;13.20;79.80;;;;;;4988874;28;20492;-50
2022/10/16 05:36:38;;;;;;;2.10;1.30;;;13.10;78.70;;;;;;4989126;28;20461;-51
2022/10/16 05:39:05;;;;;;;1.30;1.17;;;13.10;78.90;;;;;;4985448;28;20468;-51
2022/10/16 05:41:32;;;;;;;2.40;1.50;;;13.20;79.10;;;;;;4988184;28;20460;-51
2022/10/16 05:43:59;;;;;;;1.53;1.20;;;13.20;79.10;;;;;;4988655;28;20476;-51
2022/10/16 05:46:25;;;;;;;1.60;1.50;;;13.20;78.20;;;;;;4988245;28;20888;-51
2022/10/16 05:48:52;;;;;;;1.53;1.20;;;13.20;77.40;;;;;;4990905;28;20518;-52
2022/10/16 05:51:19;;;;;;;12.13;1.83;;;13.20;76.30;;;;;;4988896;28;20464;-51
2022/10/16 05:53:46;;;;;;;2.30;1.70;;;13.20;74.40;;;;;;4987262;28;20543;-50
2022/10/16 05:56:14;;;;;;;3.50;1.50;;;13.20;73.30;;;;;;4991963;28;20465;-51
2022/10/16 05:58:41;;;;;;;6.10;1.50;;;13.30;74.10;;;;;;4988634;28;21009;-51
2022/10/16 06:01:11;;;;;;;3.53;1.70;;;13.30;71.00;;;;;;4990218;28;20468;-50
2022/10/16 06:03:38;;;;;;;2.20;2.00;;;13.40;66.70;;;;;;4988961;28;20480;-51
2022/10/16 06:06:09;;;;;;;2.30;2.20;;;13.40;64.10;;;;;;4990553;28;20464;-50
2022/10/16 06:08:36;;;;;;;3.20;2.00;;;13.40;62.20;;;;;;4986077;28;20468;-50
2022/10/16 06:11:03;;;;;;;6.67;5.97;;;13.50;61.10;;;;;;4987401;28;20465;-50
2022/10/16 06:13:31;;;;;;;9.10;6.87;;;13.60;58.50;;;;;;4986770;28;20504;-47
2022/10/16 06:15:59;;;;;;;7.63;4.50;;;13.60;56.00;;;;;;5021810;22;21346;-52
2022/10/16 06:18:26;;;;;;;2.70;2.50;;;13.70;53.10;;;;;;5010595;28;20952;-51
2022/10/16 06:20:52;;;;;;;2.00;1.90;;;13.80;51.00;;;;;;5014888;28;21027;-50
2022/10/16 06:23:19;;;;;;;1.77;1.67;;;13.90;48.90;;;;;;5008254;28;20456;-51
2022/10/16 06:25:46;;;;;;;2.10;1.50;;;13.90;48.50;;;;;;5008698;28;20479;-51
2022/10/16 06:28:14;;;;;;;2.97;1.93;;;14.00;48.20;;;;;;5011913;28;20991;-51
2022/10/16 06:30:43;;;;;;;2.50;2.30;;;14.00;46.90;;;;;;5007003;28;20481;-50
2022/10/16 06:33:10;;;;;;;3.40;3.20;;;14.00;46.90;;;;;;5006926;28;20229;-50
2022/10/16 06:35:36;;;;;;;3.33;2.80;;;14.00;46.10;;;;;;5006937;28;20533;-51
2022/10/16 06:38:03;;;;;;;2.40;2.20;;;14.10;46.50;;;;;;5004192;28;21455;-50
2022/10/16 06:40:30;;;;;;;3.50;2.77;;;14.10;45.30;;;;;;5004809;28;20465;-50
2022/10/16 06:42:56;;;;;;;5.67;3.97;;;14.20;47.80;;;;;;5004384;28;20464;-50
2022/10/16 06:45:23;;;;;;;6.60;4.53;;;14.20;48.30;;;;;;5006428;28;20495;-51
2022/10/16 06:47:51;;;;;;;5.50;4.50;;;14.20;48.00;;;;;;5007769;28;20467;-50
2022/10/16 06:50:18;;;;;;;4.67;4.27;;;14.20;48.40;;;;;;4997160;28;20475;-51
2022/10/16 06:52:44;;;;;;;5.30;3.73;;;14.30;48.00;;;;;;5002611;28;20464;-50
2022/10/16 06:55:11;;;;;;;2.93;2.70;;;14.30;48.70;;;;;;5001122;28;20491;-51
2022/10/16 06:57:37;;;;;;;4.13;3.60;;;14.40;50.30;;;;;;5004607;28;20452;-50
2022/10/16 07:00:05;;;;;;;3.33;2.13;;;14.40;51.00;;;;;;4997709;28;20587;-51
2022/10/16 07:02:32;;;;;;;3.70;2.73;;;14.40;53.90;;;;;;5004094;28;20981;-50
2022/10/16 07:04:59;;;;;;;2.77;2.27;;;14.50;54.40;;;;;;4999545;28;20534;-50
2022/10/16 07:07:26;;;;;;;3.97;1.93;;;14.50;55.80;;;;;;4999561;28;20973;-51
2022/10/16 07:09:53;;;;;;;2.33;2.23;;;14.60;56.10;;;;;;5003944;28;20460;-51
2022/10/16 07:12:19;;;;;;;2.20;2.07;;;14.60;58.70;;;;;;4999962;28;20452;-51
2022/10/16 07:14:46;;;;;;;2.50;2.30;;;14.60;61.50;;;;;;5003728;28;20523;-51
2022/10/16 07:17:12;;;;;;;3.57;3.10;;;14.70;65.40;;;;;;4998874;28;20470;-51
2022/10/16 07:19:39;;;;;;;5.00;4.07;;;14.70;70.20;;;;;;5000238;28;20969;-51
2022/10/16 07:22:07;;;;;;;3.63;3.23;;;14.80;76.80;;;;;;5000746;28;20491;-50
2022/10/16 07:24:34;;;;;;;2.43;2.33;;;14.80;80.80;;;;;;5002614;28;20475;-50
2022/10/16 07:27:01;;;;;;;2.50;2.30;;;14.90;85.40;;;;;;5000336;28;20471;-51
2022/10/16 07:29:28;;;;;;;2.90;2.60;;;14.90;88.50;;;;;;5000079;28;20456;-50
2022/10/16 07:31:54;;;;;;;2.40;2.20;;;14.90;89.70;;;;;;5000755;28;20487;-50
2022/10/16 07:34:22;;;;;;;2.13;1.90;;;15.00;93.50;;;;;;5000263;28;20971;-50
2022/10/16 07:36:49;;;;;;;3.27;2.97;;;15.00;97.00;;;;;;4996379;28;20463;-50
2022/10/16 07:39:18;;;;;;;2.83;2.63;;;15.10;99.90;;;;;;5000203;28;20525;-50
2022/10/16 07:41:44;;;;;;;5.83;4.23;;;15.20;99.90;;;;;;5001320;28;20484;-50
2022/10/16 07:44:11;;;;;;;4.03;3.73;;;15.20;99.90;;;;;;4999543;28;20956;-50
2022/10/16 07:46:38;;;;;;;3.67;3.37;;;15.20;99.90;;;;;;5000128;28;20510;-50
2022/10/16 07:49:04;;;;;;;5.40;2.87;;;15.30;99.90;;;;;;5001276;28;21042;-50
2022/10/16 07:51:31;;;;;;;4.77;2.70;;;15.30;99.90;;;;;;5001043;28;20487;-50
2022/10/16 07:53:58;;;;;;;6.00;3.03;;;15.40;99.90;;;;;;5007317;28;20475;-50
2022/10/16 07:56:26;;;;;;;2.67;2.47;;;15.40;99.90;;;;;;5010353;28;20536;-50
2022/10/16 07:58:53;;;;;;;3.63;2.20;;;15.50;99.90;;;;;;5008653;28;20937;-50
2022/10/16 08:01:20;;;;;;;3.30;2.27;;;15.50;99.90;;;;;;5006907;28;20988;-51
2022/10/16 08:03:48;;;;;;;2.57;2.30;;;15.60;99.90;;;;;;5004588;28;20464;-51
2022/10/16 08:06:15;;;;;;;2.10;1.93;;;15.60;99.90;;;;;;4997319;28;21497;-51
2022/10/16 08:08:42;;;;;;;1.90;1.80;;;15.70;99.90;;;;;;4999490;28;20503;-51
2022/10/16 08:11:09;;;;;;;6.83;2.17;;;15.80;99.90;;;;;;4995696;28;20936;-48
2022/10/16 08:13:38;;;;;;;1.90;1.80;;;15.80;99.90;;;;;;5004501;28;20537;-48
2022/10/16 08:16:07;;;;;;;2.30;1.73;;;15.90;99.90;;;;;;5002546;28;22560;-49
2022/10/16 08:18:34;;;;;;;2.83;1.77;;;15.90;99.90;;;;;;5003629;28;20473;-50
2022/10/16 08:21:01;;;;;;;2.00;1.90;;;15.90;99.90;;;;;;5005870;28;20459;-48
2022/10/16 08:23:28;;;;;;;3.07;2.00;;;15.90;99.90;;;;;;5008421;28;20455;-49
2022/10/16 08:25:56;;;;;;;2.37;2.17;;;15.90;99.90;;;;;;5003763;28;21103;-48
2022/10/16 08:28:23;;;;;;;2.07;1.93;;;15.90;99.90;;;;;;5007950;28;20464;-48
2022/10/16 08:30:51;;;;;;;3.03;2.83;;;16.00;99.90;;;;;;5006524;28;20999;-49
2022/10/16 08:33:18;;;;;;;2.17;2.03;;;16.00;99.90;;;;;;5007417;28;20455;-49
2022/10/16 08:35:52;;;;;;;3.07;2.87;;;16.00;99.90;;;;;;5008037;28;20484;-49
2022/10/16 08:38:18;;;;;;;5.40;4.50;;;16.10;99.90;;;;;;5004515;28;21094;-48
2022/10/16 08:40:46;;;;;;;8.70;7.00;;;16.10;99.90;;;;;;5008301;28;20489;-48
2022/10/16 08:43:43;;;;;;;13.83;5.67;;;16.10;99.90;;;;;;5001229;28;20533;-50
2022/10/16 08:46:28;;;;;;;9.83;6.80;;;16.20;99.90;;;;;;5006797;28;20557;-49
2022/10/16 08:48:57;;;;;;;9.30;6.17;;;16.20;99.90;;;;;;5005860;28;20977;-49
2022/10/16 08:51:26;;;;;;;9.00;5.57;;;16.30;99.90;;;;;;4999636;28;20490;-49
2022/10/16 08:53:56;;;;;;;2.50;2.30;;;16.30;99.90;;;;;;4998661;28;20947;-49
2022/10/16 08:56:23;;;;;;;2.67;2.33;;;16.30;99.90;;;;;;5002855;28;20495;-48
2022/10/16 08:58:51;;;;;;;2.30;2.20;;;16.40;99.90;;;;;;5000462;28;21129;-49
2022/10/16 09:01:23;;;;;;;2.60;2.40;;;16.50;99.90;;;;;;5004996;28;21044;-48
2022/10/16 09:04:08;;;;;;;7.27;3.37;;;16.50;99.90;;;;;;4999557;28;20460;-49
2022/10/16 09:06:46;;;;;;;3.60;3.30;;;16.60;99.90;;;;;;5003945;28;20961;-49
2022/10/16 09:09:35;;;;;;;4.00;2.10;;;16.60;99.90;;;;;;5004483;28;20533;-49
2022/10/16 09:12:09;;;;;;;2.70;2.50;;;16.60;89.10;;;;;;5007597;28;20463;-49
2022/10/16 09:14:44;;;;;;;3.87;2.43;;;16.60;96.70;;;;;;5008538;28;20494;-50
2022/10/16 09:17:27;;;;;;;3.40;2.80;;;16.60;99.90;;;;;;5006100;28;20517;-51
2022/10/16 09:20:04;;;;;;;3.57;2.50;;;16.70;94.70;;;;;;5001276;28;20490;-51
2022/10/16 09:22:33;;;;;;;7.97;2.53;;;17.00;34.00;;;;;;5000392;28;20471;-49
2022/10/16 09:25:02;;;;;;;5.17;3.90;;;17.00;35.90;;;;;;5003154;28;20541;-51
2022/10/16 09:27:28;;;;;;;11.97;2.93;;;17.10;39.00;;;;;;5002494;28;20468;-50
2022/10/16 09:29:55;;;;;;;2.80;2.40;;;17.10;47.10;;;;;;5002924;28;21033;-51
2022/10/16 09:32:24;;;;;;;5.60;2.40;;;17.40;49.40;;;;;;5002156;28;20455;-50
2022/10/16 09:34:53;;;;;;;2.63;2.43;;;17.80;85.10;;;;;;5008930;28;20487;-49
2022/10/16 09:37:23;;;;;;;3.33;2.20;;;17.80;87.50;;;;;;5000978;28;20896;-51
2022/10/16 09:39:52;;;;;;;7.57;5.03;;;18.00;94.00;;;;;;5006648;28;20455;-50
2022/10/16 09:42:20;;;;;;;3.23;2.10;;;18.50;99.90;;;;;;5002949;28;20538;-50
2022/10/16 09:44:50;;;;;;;8.23;4.27;;;18.40;99.90;;;;;;5007566;28;20483;-49
2022/10/16 09:47:20;;;;;;;18.67;13.60;;;18.50;99.90;;;;;;5006831;28;20482;-50
2022/10/16 09:49:57;;;;;;;34.17;21.87;;;18.90;99.90;;;;;;5005508;28;20486;-50
2022/10/16 09:52:24;;;;;;;16.07;6.67;;;19.30;99.90;;;;;;4999241;28;20845;-51
2022/10/16 09:54:53;;;;;;;7.63;5.07;;;19.20;99.90;;;;;;4999111;28;20511;-50
2022/10/16 09:57:20;;;;;;;4.40;4.00;;;18.90;99.90;;;;;;5005279;28;20456;-50
2022/10/16 09:59:48;;;;;;;15.63;11.07;;;18.40;99.90;;;;;;5001725;28;20467;-50
2022/10/16 10:02:17;;;;;;;2.93;2.50;;;18.20;99.90;;;;;;5004240;28;20468;-51
2022/10/16 10:04:50;;;;;;;3.83;3.53;;;18.10;99.90;;;;;;5005383;28;21062;-50
2022/10/16 10:07:25;;;;;;;4.00;3.60;;;18.40;99.90;;;;;;5003966;28;22310;-50
2022/10/16 10:09:52;;;;;;;8.43;6.50;;;18.40;99.90;;;;;;5003398;28;20463;-50
2022/10/16 10:12:22;;;;;;;4.63;4.23;;;18.40;99.90;;;;;;4998427;28;21014;-50
2022/10/16 10:14:51;;;;;;;10.70;6.93;;;18.40;99.90;;;;;;5009404;28;20492;-51
2022/10/16 10:17:19;;;;;;;3.63;2.10;;;18.40;99.90;;;;;;5003479;28;20535;-50
2022/10/16 10:19:52;;;;;;;3.90;3.30;;;18.20;99.90;;;;;;5007799;28;20455;-50
2022/10/16 10:22:30;;;;;;;3.30;2.30;;;18.10;99.90;;;;;;5008907;28;20467;-51
2022/10/16 10:25:00;;;;;;;7.80;5.30;;;18.20;99.90;;;;;;5008408;28;20514;-52
2022/10/16 10:27:37;;;;;;;3.63;3.33;;;18.20;99.90;;;;;;5005238;28;20506;-51
2022/10/16 10:30:11;;;;;;;7.30;2.50;;;18.30;99.90;;;;;;5004408;28;20562;-51
2022/10/16 10:32:44;;;;;;;3.17;1.67;;;18.40;99.90;;;;;;5002932;28;20549;-50
2022/10/16 10:35:19;;;;;;;3.93;1.90;;;18.50;99.90;;;;;;5010478;28;20521;-51
2022/10/16 10:38:03;;;;;;;4.07;1.70;;;18.60;99.90;;;;;;5011607;28;21106;-49
2022/10/16 10:40:40;;;;;;;1.97;1.87;;;18.60;99.90;;;;;;5012776;28;20463;-49
2022/10/16 10:43:14;;;;;;;2.33;2.13;;;18.50;99.90;;;;;;5004540;28;20517;-49
2022/10/16 10:45:44;;;;;;;2.03;1.90;;;18.60;99.90;;;;;;5010168;28;20714;-49
2022/10/16 10:48:22;;;;;;;2.30;1.50;;;18.50;99.90;;;;;;5001602;28;20545;-48
2022/10/16 10:50:53;;;;;;;5.63;2.30;;;18.50;99.90;;;;;;5008451;28;20464;-49
2022/10/16 10:53:33;;;;;;;2.10;1.47;;;18.50;99.90;;;;;;5007340;28;20509;-49
2022/10/16 10:56:13;;;;;;;2.43;1.80;;;18.40;99.90;;;;;;5001676;28;20483;-48
2022/10/16 10:59:07;;;;;;;3.27;1.77;;;18.50;99.90;;;;;;5007209;28;20866;-49
2022/10/16 11:01:42;;;;;;;2.30;2.10;;;18.50;99.90;;;;;;5001652;28;20455;-50
2022/10/16 11:04:34;;;;;;;3.63;2.20;;;18.50;99.90;;;;;;5004773;28;20544;-48
2022/10/16 11:07:05;;;;;;;4.10;2.33;;;18.60;99.90;;;;;;5006298;28;20536;-49
2022/10/16 11:09:37;;;;;;;2.07;1.73;;;18.70;99.90;;;;;;5006872;28;20484;-49
2022/10/16 11:12:08;;;;;;;2.33;2.00;;;18.70;99.90;;;;;;5006645;28;20821;-49
2022/10/16 11:14:39;;;;;;;4.03;2.60;;;18.80;99.90;;;;;;5011395;28;20861;-48
2022/10/16 11:17:12;;;;;;;8.03;2.60;;;18.70;99.90;;;;;;5007079;28;20459;-48
2022/10/16 11:19:46;;;;;;;4.77;2.30;;;18.70;99.90;;;;;;5011550;28;20460;-48
2022/10/16 11:22:17;;;;;;;1.50;1.27;;;18.60;99.90;;;;;;5006181;28;20506;-49
2022/10/16 11:24:49;;;;;;;8.20;2.10;;;18.50;99.90;;;;;;5010100;28;20495;-49
2022/10/16 11:27:20;;;;;;;1.63;1.53;;;18.60;99.90;;;;;;5010990;28;20985;-49
2022/10/16 11:29:53;;;;;;;4.10;1.73;;;18.70;99.90;;;;;;5008416;28;20463;-48
2022/10/16 11:32:24;;;;;;;1.80;1.60;;;18.80;99.90;;;;;;5011618;28;20444;-49
2022/10/16 11:34:58;;;;;;;2.10;1.70;;;18.90;99.90;;;;;;5005998;28;20969;-49
2022/10/16 11:37:31;;;;;;;2.30;1.93;;;19.00;99.90;;;;;;5004756;28;20460;-48
2022/10/16 11:40:06;;;;;;;3.83;2.80;;;19.10;99.90;;;;;;5008667;28;20602;-49
2022/10/16 11:42:38;;;;;;;1.70;1.60;;;19.20;99.90;;;;;;5006826;28;20440;-48
2022/10/16 11:45:16;;;;;;;1.70;1.60;;;19.20;99.90;;;;;;5010582;28;20475;-48
2022/10/16 11:47:45;;;;;;;2.50;2.07;;;19.30;99.90;;;;;;5016013;28;20865;-48
2022/10/16 11:50:23;;;;;;;2.17;2.07;;;19.30;99.90;;;;;;5012919;28;20455;-49
2022/10/16 11:52:56;;;;;;;3.30;2.20;;;19.40;99.90;;;;;;5014853;28;20513;-49
2022/10/16 11:55:31;;;;;;;5.37;2.80;;;19.50;99.90;;;;;;5013572;28;20479;-49
2022/10/16 11:58:03;;;;;;;3.93;2.67;;;19.50;99.90;;;;;;5017801;28;20932;-49
2022/10/16 12:00:35;;;;;;;5.00;3.07;;;19.60;99.90;;;;;;5025274;28;20969;-50
2022/10/16 12:03:11;;;;;;;3.23;2.37;;;19.50;99.90;;;;;;5013445;28;20847;-49
2022/10/16 12:05:56;;;;;;;13.73;2.83;;;19.40;28.60;;;;;;5004999;28;20820;-50
2022/10/16 12:08:23;;;;;;;5.77;2.63;;;19.40;28.50;;;;;;5015011;28;20439;-49
2022/10/16 12:10:51;;;;;;;4.60;2.23;;;19.40;36.30;;;;;;5011861;28;20519;-49
2022/10/16 12:13:32;;;;;;;2.10;2.00;;;19.40;34.80;;;;;;5013018;28;20466;-49
2022/10/16 12:16:21;;;;;;;2.90;2.27;;;19.90;47.30;;;;;;5014974;28;20545;-51
2022/10/16 12:18:49;;;;;;;1.97;1.30;;;20.40;63.90;;;;;;5015004;28;20543;-51
2022/10/16 12:21:18;;;;;;;2.30;1.67;;;20.20;76.20;;;;;;5013441;28;21023;-52
2022/10/16 12:23:49;;;;;;;1.33;1.23;;;20.10;72.90;;;;;;5014246;28;20470;-52
2022/10/16 12:26:25;;;;;;;3.30;2.40;;;20.00;69.90;;;;;;5010641;28;20479;-52
2022/10/16 12:28:52;;;;;;;4.30;2.00;;;20.00;73.30;;;;;;5013270;28;20470;-52
2022/10/16 12:31:19;;;;;;;2.10;1.90;;;19.90;68.00;;;;;;5013936;28;20466;-51
2022/10/16 12:33:57;;;;;;;2.83;2.00;;;20.10;70.80;;;;;;5015336;28;20443;-52
2022/10/16 12:36:29;;;;;;;2.40;1.70;;;20.20;66.70;;;;;;5012100;28;20557;-52
2022/10/16 12:38:56;;;;;;;1.40;1.30;;;20.30;74.30;;;;;;5014351;28;20961;-51
2022/10/16 12:41:29;;;;;;;1.83;1.73;;;20.30;73.90;;;;;;5011885;28;20945;-52
2022/10/16 12:43:56;;;;;;;3.70;1.60;;;20.10;90.30;;;;;;5014600;28;20452;-53
2022/10/16 12:46:34;;;;;;;3.20;1.80;;;20.10;86.40;;;;;;5009493;28;20459;-51
2022/10/16 12:49:08;;;;;;;3.30;1.30;;;20.00;89.30;;;;;;5014848;28;20443;-51
2022/10/16 12:51:36;;;;;;;1.40;1.30;;;19.90;89.80;;;;;;5012179;28;20464;-51
2022/10/16 12:54:05;;;;;;;1.10;1.00;;;20.00;89.60;;;;;;5008195;28;20494;-51
2022/10/16 12:56:47;;;;;;;1.07;0.97;;;20.20;97.20;;;;;;5014589;28;20475;-51